Time;durP1;ratioP1;P1;durP2;ratioP2;P2;SDS_P1;SDS_P2;PMS_P1;PMS_P2;Temp;Humidity;BMP_temperature;BMP_pressure;BME280_temperature;BME280_humidity;BME280_pressure;Samples;Min_cycle;Max_cycle;Signal;HPM_P1;HPM_P2
2024/01/16 00:01:51;;;;;;;;;;;15.30;52.30;;;;;;7395208;19;2499;-61
2024/01/16 00:04:16;;;;;;;;;;;15.30;52.40;;;;;;7393330;19;847;-62
2024/01/16 00:06:42;;;;;;;;;;;15.20;52.40;;;;;;7394550;19;1973;-61
2024/01/16 00:09:08;;;;;;;;;;;15.20;52.40;;;;;;7392275;19;1248;-61
2024/01/16 00:11:34;;;;;;;;;;;15.20;52.40;;;;;;7396163;19;1418;-61
2024/01/16 00:13:59;;;;;;;;;;;15.20;52.40;;;;;;7397007;19;1615;-61
2024/01/16 00:16:24;;;;;;;;;;;15.20;52.50;;;;;;7396503;19;839;-61
2024/01/16 00:18:50;;;;;;;;;;;15.20;52.60;;;;;;7394548;19;1879;-61
2024/01/16 00:21:15;;;;;;;;;;;15.20;52.60;;;;;;7396991;19;2634;-61
2024/01/16 00:23:41;;;;;;;;;;;15.20;52.60;;;;;;7402501;19;1444;-62
2024/01/16 00:26:06;;;;;;;;;;;15.10;52.60;;;;;;7403343;19;1498;-61
2024/01/16 00:28:32;;;;;;;;;;;15.10;52.50;;;;;;7399995;19;994;-61
2024/01/16 00:30:57;;;;;;;;;;;15.10;52.60;;;;;;7400788;19;1545;-61
2024/01/16 00:33:22;;;;;;;;;;;15.00;52.60;;;;;;7401972;19;2571;-61
2024/01/16 00:35:48;;;;;;;;;;;15.10;52.70;;;;;;7403004;19;1924;-61
2024/01/16 00:38:13;;;;;;;;;;;15.00;52.60;;;;;;7397884;19;2173;-61
2024/01/16 00:40:39;;;;;;;;;;;15.00;52.60;;;;;;7403849;19;1842;-61
2024/01/16 00:43:04;;;;;;;;;;;15.00;52.60;;;;;;7399103;19;1824;-61
2024/01/16 00:45:30;;;;;;;;;;;15.00;52.80;;;;;;7400341;19;1432;-61
2024/01/16 00:47:55;;;;;;;;;;;15.00;52.80;;;;;;7400508;19;843;-61
2024/01/16 00:50:21;;;;;;;;;;;14.90;52.80;;;;;;7396139;19;3084;-61
2024/01/16 00:52:47;;;;;;;;;;;14.90;52.80;;;;;;7398644;19;874;-61
2024/01/16 00:55:12;;;;;;;;;;;14.90;53.00;;;;;;7398387;19;1466;-61
2024/01/16 00:57:38;;;;;;;;;;;14.90;52.90;;;;;;7401072;19;1850;-61
2024/01/16 01:00:04;;;;;;;;;;;14.90;52.90;;;;;;7397888;19;915;-61
2024/01/16 01:02:29;;;;;;;;;;;14.90;53.00;;;;;;7403170;19;994;-61
2024/01/16 01:04:55;;;;;;;;;;;14.90;52.90;;;;;;7398975;19;2157;-61
2024/01/16 01:07:20;;;;;;;;;;;14.80;52.90;;;;;;7402167;19;1737;-61
2024/01/16 01:09:45;;;;;;;;;;;14.80;53.00;;;;;;7399775;19;1965;-61
2024/01/16 01:12:11;;;;;;;;;;;14.80;52.80;;;;;;7398389;19;1677;-61
2024/01/16 01:14:36;;;;;;;;;;;14.80;52.90;;;;;;7398931;19;920;-61
2024/01/16 01:17:02;;;;;;;;;;;14.70;52.80;;;;;;7401170;19;1858;-61
2024/01/16 01:19:27;;;;;;;;;;;14.70;52.80;;;;;;7397892;19;1394;-61
2024/01/16 01:21:53;;;;;;;;;;;14.70;53.00;;;;;;7400761;19;1602;-61
2024/01/16 01:24:18;;;;;;;;;;;14.70;53.00;;;;;;7401088;19;1828;-61
2024/01/16 01:26:44;;;;;;;;;;;14.70;52.90;;;;;;7399933;19;1684;-61
2024/01/16 01:29:09;;;;;;;;;;;14.70;53.00;;;;;;7398775;19;1434;-61
2024/01/16 01:31:35;;;;;;;;;;;14.70;52.90;;;;;;7400076;19;1409;-61
2024/01/16 01:34:00;;;;;;;;;;;14.70;53.00;;;;;;7396564;19;1030;-61
2024/01/16 01:36:26;;;;;;;;;;;14.60;52.90;;;;;;7397731;19;1039;-61
2024/01/16 01:38:51;;;;;;;;;;;14.60;52.90;;;;;;7394848;19;1865;-61
2024/01/16 01:41:17;;;;;;;;;;;14.60;52.90;;;;;;7401862;19;1513;-61
2024/01/16 01:43:42;;;;;;;;;;;14.60;53.00;;;;;;7397765;19;1040;-62
2024/01/16 01:46:10;;;;;;;;;;;14.60;52.90;;;;;;7398244;19;982;-62
2024/01/16 01:48:37;;;;;;;;;;;14.60;53.00;;;;;;7397619;19;1623;-61
2024/01/16 01:51:02;;;;;;;;;;;14.60;53.10;;;;;;7400454;19;1529;-61
2024/01/16 01:53:28;;;;;;;;;;;14.60;52.90;;;;;;7398798;19;1622;-61
2024/01/16 01:55:54;;;;;;;;;;;14.50;52.90;;;;;;7397472;19;1535;-61
2024/01/16 01:58:19;;;;;;;;;;;14.50;53.10;;;;;;7396985;19;2554;-61
2024/01/16 02:00:45;;;;;;;;;;;14.50;53.10;;;;;;7399393;19;1875;-60
2024/01/16 02:03:10;;;;;;;;;;;14.50;53.00;;;;;;7401731;19;1594;-61
2024/01/16 02:05:36;;;;;;;;;;;14.40;53.00;;;;;;7400384;19;1693;-61
2024/01/16 02:08:01;;;;;;;;;;;14.50;53.10;;;;;;7401031;19;1568;-61
2024/01/16 02:10:26;;;;;;;;;;;14.40;53.00;;;;;;7399941;19;1608;-61
2024/01/16 02:12:52;;;;;;;;;;;14.50;53.00;;;;;;7399218;19;1881;-61
2024/01/16 02:15:17;;;;;;;;;;;14.50;52.80;;;;;;7398700;19;1558;-61
2024/01/16 02:17:43;;;;;;;;;;;14.60;53.00;;;;;;7397393;19;1856;-61
2024/01/16 02:20:08;;;;;;;;;;;14.60;52.80;;;;;;7398845;19;2133;-61
2024/01/16 02:22:34;;;;;;;;;;;14.70;52.60;;;;;;7400801;19;1906;-61
2024/01/16 02:24:59;;;;;;;;;;;14.90;52.50;;;;;;7395768;19;796;-61
2024/01/16 02:27:25;;;;;;;;;;;15.30;51.90;;;;;;7400305;19;1436;-61
2024/01/16 02:29:50;;;;;;;;;;;15.70;51.50;;;;;;7397754;19;2289;-61
2024/01/16 02:32:15;;;;;;;;;;;16.10;50.60;;;;;;7399784;19;1733;-61
2024/01/16 02:34:41;;;;;;;;;;;16.50;49.80;;;;;;7395599;19;2334;-61
2024/01/16 02:37:07;;;;;;;;;;;16.80;49.20;;;;;;7396705;19;1854;-61
2024/01/16 02:39:32;;;;;;;;;;;17.10;48.50;;;;;;7400659;19;1913;-61
2024/01/16 02:41:58;;;;;;;;;;;17.40;48.00;;;;;;7394436;19;1591;-61
2024/01/16 02:44:23;;;;;;;;;;;17.60;47.40;;;;;;7396500;19;978;-61
2024/01/16 02:46:49;;;;;;;;;;;17.90;47.70;;;;;;7394633;19;1205;-61
2024/01/16 02:49:15;;;;;;;;;;;18.00;46.80;;;;;;7397436;19;1523;-61
2024/01/16 02:51:41;;;;;;;;;;;18.10;46.50;;;;;;7398837;19;1562;-61
2024/01/16 02:54:08;;;;;;;;;;;18.10;46.40;;;;;;7398432;19;1569;-61
2024/01/16 02:56:33;;;;;;;;;;;18.20;46.30;;;;;;7398871;19;1844;-61
2024/01/16 02:58:58;;;;;;;;;;;18.10;46.30;;;;;;7397296;19;1948;-61
2024/01/16 03:01:24;;;;;;;;;;;18.00;46.50;;;;;;7399824;19;1424;-61
2024/01/16 03:03:49;;;;;;;;;;;17.90;46.70;;;;;;7397760;19;1607;-61
2024/01/16 03:06:22;;;;;;;;;;;17.80;47.00;;;;;;7400276;19;1927;-61
2024/01/16 03:08:47;;;;;;;;;;;17.60;47.30;;;;;;7397669;19;1552;-61
2024/01/16 03:11:12;;;;;;;;;;;17.40;47.60;;;;;;7397661;19;1927;-61
2024/01/16 03:13:38;;;;;;;;;;;17.30;48.50;;;;;;7394696;19;1633;-61
2024/01/16 03:16:06;;;;;;;;;;;17.20;48.00;;;;;;7397019;19;1861;-61
2024/01/16 03:18:31;;;;;;;;;;;17.10;48.20;;;;;;7395545;19;1878;-61
2024/01/16 03:20:58;;;;;;;;;;;17.10;48.30;;;;;;7399057;19;1453;-61
2024/01/16 03:23:23;;;;;;;;;;;17.00;48.30;;;;;;7398819;19;1303;-61
2024/01/16 03:25:48;;;;;;;;;;;16.90;48.60;;;;;;7394025;19;1594;-61
2024/01/16 03:28:14;;;;;;;;;;;16.90;48.70;;;;;;7398017;19;2419;-61
2024/01/16 03:30:39;;;;;;;;;;;16.80;48.70;;;;;;7397872;19;1823;-61
2024/01/16 03:33:05;;;;;;;;;;;16.80;48.70;;;;;;7396789;19;1495;-61
2024/01/16 03:35:30;;;;;;;;;;;16.80;48.80;;;;;;7395068;19;2578;-61
2024/01/16 03:37:55;;;;;;;;;;;16.70;48.90;;;;;;7394087;19;1971;-61
2024/01/16 03:40:21;;;;;;;;;;;16.70;49.00;;;;;;7398809;19;1010;-61
2024/01/16 03:42:46;;;;;;;;;;;16.70;49.00;;;;;;7395380;19;1566;-62
2024/01/16 03:45:12;;;;;;;;;;;16.70;49.10;;;;;;7396905;19;1406;-61
2024/01/16 03:47:37;;;;;;;;;;;16.70;49.10;;;;;;7395843;19;1551;-61
2024/01/16 03:50:03;;;;;;;;;;;16.70;49.20;;;;;;7397024;19;1620;-61
2024/01/16 03:52:28;;;;;;;;;;;16.60;49.10;;;;;;7395056;19;1714;-62
2024/01/16 03:54:54;;;;;;;;;;;16.60;49.10;;;;;;7404983;19;1815;-61
2024/01/16 03:57:19;;;;;;;;;;;16.60;49.10;;;;;;7404609;19;1846;-61
2024/01/16 03:59:45;;;;;;;;;;;16.60;49.10;;;;;;7404918;19;1830;-61
2024/01/16 04:02:10;;;;;;;;;;;16.60;49.30;;;;;;7402117;19;1608;-61
2024/01/16 04:04:35;;;;;;;;;;;16.60;49.10;;;;;;7403661;19;1958;-61
2024/01/16 04:07:01;;;;;;;;;;;16.60;49.10;;;;;;7400691;19;1119;-62
2024/01/16 04:09:26;;;;;;;;;;;16.70;48.90;;;;;;7404461;19;1541;-61
2024/01/16 04:11:52;;;;;;;;;;;16.70;48.80;;;;;;7400484;19;1522;-61
2024/01/16 04:14:18;;;;;;;;;;;16.80;48.90;;;;;;7403036;19;1595;-61
2024/01/16 04:16:43;;;;;;;;;;;16.80;48.90;;;;;;7399017;19;1838;-61
2024/01/16 04:19:09;;;;;;;;;;;16.80;48.90;;;;;;7403497;19;2194;-61
2024/01/16 04:21:35;;;;;;;;;;;16.80;48.70;;;;;;7403607;19;1855;-61
2024/01/16 04:24:01;;;;;;;;;;;16.80;48.60;;;;;;7405245;19;1379;-61
2024/01/16 04:26:26;;;;;;;;;;;16.90;48.70;;;;;;7402798;19;1884;-61
2024/01/16 04:28:52;;;;;;;;;;;16.80;48.60;;;;;;7400421;19;855;-61
2024/01/16 04:31:19;;;;;;;;;;;16.80;48.70;;;;;;7402899;19;910;-61
2024/01/16 04:33:44;;;;;;;;;;;16.80;48.70;;;;;;7400187;19;1532;-61
2024/01/16 04:36:10;;;;;;;;;;;16.80;48.80;;;;;;7398539;19;1039;-62
2024/01/16 04:38:35;;;;;;;;;;;16.80;48.80;;;;;;7401031;19;1862;-61
2024/01/16 04:41:02;;;;;;;;;;;16.80;48.90;;;;;;7401400;19;1579;-61
2024/01/16 04:43:27;;;;;;;;;;;16.80;49.00;;;;;;7397493;19;777;-61
2024/01/16 04:45:52;;;;;;;;;;;16.80;49.00;;;;;;7402344;19;2578;-61
2024/01/16 04:48:18;;;;;;;;;;;16.80;49.00;;;;;;7400347;19;2063;-61
2024/01/16 04:50:45;;;;;;;;;;;16.70;49.10;;;;;;7402105;19;1942;-61
2024/01/16 04:53:10;;;;;;;;;;;16.70;49.00;;;;;;7400836;19;1821;-61
2024/01/16 04:55:36;;;;;;;;;;;16.70;49.10;;;;;;7399135;19;1693;-61
2024/01/16 04:58:01;;;;;;;;;;;16.70;49.10;;;;;;7399647;19;1846;-61
2024/01/16 05:00:27;;;;;;;;;;;16.70;49.10;;;;;;7399477;19;982;-61
2024/01/16 05:02:52;;;;;;;;;;;16.70;49.20;;;;;;7400808;19;2960;-61
2024/01/16 05:05:18;;;;;;;;;;;16.70;49.20;;;;;;7400212;19;1822;-61
2024/01/16 05:07:43;;;;;;;;;;;16.70;49.20;;;;;;7400822;19;1857;-61
2024/01/16 05:10:14;;;;;;;;;;;16.70;49.30;;;;;;7398257;19;1727;-61
2024/01/16 05:12:40;;;;;;;;;;;16.70;49.30;;;;;;7401214;19;2087;-62
2024/01/16 05:15:06;;;;;;;;;;;16.70;49.40;;;;;;7397461;19;1057;-61
2024/01/16 05:17:32;;;;;;;;;;;16.70;49.30;;;;;;7397307;19;1825;-61
2024/01/16 05:19:57;;;;;;;;;;;16.70;49.20;;;;;;7400424;19;1790;-61
2024/01/16 05:22:22;;;;;;;;;;;16.70;49.20;;;;;;7402719;19;1372;-61
2024/01/16 05:24:48;;;;;;;;;;;16.70;49.10;;;;;;7401323;19;1635;-61
2024/01/16 05:27:14;;;;;;;;;;;16.70;49.00;;;;;;7396680;19;785;-61
2024/01/16 05:29:42;;;;;;;;;;;16.80;49.00;;;;;;7397376;19;954;-61
2024/01/16 05:32:08;;;;;;;;;;;16.80;48.90;;;;;;7402263;19;801;-61
2024/01/16 05:34:33;;;;;;;;;;;16.80;48.90;;;;;;7400424;19;1550;-61
2024/01/16 05:36:58;;;;;;;;;;;16.80;48.80;;;;;;7398243;19;2502;-61
2024/01/16 05:39:24;;;;;;;;;;;16.80;48.80;;;;;;7402583;19;1408;-61
2024/01/16 05:41:49;;;;;;;;;;;16.80;48.60;;;;;;7401232;19;1594;-61
2024/01/16 05:44:15;;;;;;;;;;;16.80;48.60;;;;;;7396525;19;1077;-61
2024/01/16 05:46:41;;;;;;;;;;;16.80;48.60;;;;;;7398812;19;1513;-61
2024/01/16 05:49:06;;;;;;;;;;;16.80;49.20;;;;;;7397431;19;1030;-61
2024/01/16 05:51:32;;;;;;;;;;;16.80;48.60;;;;;;7397770;19;1030;-61
2024/01/16 05:53:57;;;;;;;;;;;16.80;48.70;;;;;;7399825;19;1474;-61
2024/01/16 05:56:22;;;;;;;;;;;16.80;48.50;;;;;;7396929;19;1649;-61
2024/01/16 05:58:48;;;;;;;;;;;16.80;48.50;;;;;;7397238;19;2344;-61
2024/01/16 06:01:13;;;;;;;;;;;16.80;48.50;;;;;;7400271;19;1350;-61
2024/01/16 06:03:39;;;;;;;;;;;16.80;48.70;;;;;;7397073;19;2138;-61
2024/01/16 06:06:05;;;;;;;;;;;16.80;48.70;;;;;;7401299;19;1991;-61
2024/01/16 06:08:30;;;;;;;;;;;16.80;48.70;;;;;;7395197;19;998;-61
2024/01/16 06:10:56;;;;;;;;;;;16.80;48.60;;;;;;7399204;19;1917;-61
2024/01/16 06:13:22;;;;;;;;;;;16.80;48.70;;;;;;7399850;19;1328;-61
2024/01/16 06:15:47;;;;;;;;;;;16.70;48.90;;;;;;7395937;19;1142;-61
2024/01/16 06:18:13;;;;;;;;;;;16.70;48.90;;;;;;7393503;19;1845;-61
2024/01/16 06:20:38;;;;;;;;;;;16.60;48.80;;;;;;7398419;19;1420;-61
2024/01/16 06:23:03;;;;;;;;;;;16.60;48.80;;;;;;7399499;19;1619;-61
2024/01/16 06:25:29;;;;;;;;;;;16.60;48.90;;;;;;7399586;19;1543;-61
2024/01/16 06:27:55;;;;;;;;;;;16.60;49.60;;;;;;7399855;19;1587;-61
2024/01/16 06:30:21;;;;;;;;;;;16.60;48.90;;;;;;7399418;19;1981;-61
2024/01/16 06:32:47;;;;;;;;;;;16.70;48.90;;;;;;7397639;19;1621;-61
2024/01/16 06:35:13;;;;;;;;;;;16.70;48.70;;;;;;7400159;19;1815;-61
2024/01/16 06:37:38;;;;;;;;;;;16.80;48.60;;;;;;7398601;19;1810;-61
2024/01/16 06:40:05;;;;;;;;;;;16.80;48.50;;;;;;7397426;19;1099;-62
2024/01/16 06:42:30;;;;;;;;;;;16.90;48.40;;;;;;7398164;19;1604;-61
2024/01/16 06:44:56;;;;;;;;;;;16.80;48.20;;;;;;7396140;19;747;-61
2024/01/16 06:47:23;;;;;;;;;;;16.80;48.30;;;;;;7397906;19;1678;-61
2024/01/16 06:49:49;;;;;;;;;;;16.80;48.20;;;;;;7395123;19;1858;-61
2024/01/16 06:52:14;;;;;;;;;;;16.80;48.40;;;;;;7396833;19;1030;-61
2024/01/16 06:54:39;;;;;;;;;;;16.80;48.30;;;;;;7397680;19;1599;-61
2024/01/16 06:57:05;;;;;;;;;;;16.80;48.30;;;;;;7396540;19;1861;-61
2024/01/16 06:59:30;;;;;;;;;;;16.80;48.40;;;;;;7395743;19;1927;-61
2024/01/16 07:01:56;;;;;;;;;;;16.80;48.30;;;;;;7399045;19;1622;-61
2024/01/16 07:04:21;;;;;;;;;;;16.80;48.30;;;;;;7396714;19;2562;-62
2024/01/16 07:06:47;;;;;;;;;;;16.80;48.40;;;;;;7396118;19;1659;-61
2024/01/16 07:09:12;;;;;;;;;;;16.80;48.50;;;;;;7395213;19;1530;-61
2024/01/16 07:11:38;;;;;;;;;;;16.80;49.10;;;;;;7394067;19;1869;-61
2024/01/16 07:14:06;;;;;;;;;;;16.80;48.30;;;;;;7396890;19;1349;-61
2024/01/16 07:16:32;;;;;;;;;;;16.80;48.30;;;;;;7394608;19;2130;-61
2024/01/16 07:18:57;;;;;;;;;;;16.80;48.20;;;;;;7393562;19;2520;-61
2024/01/16 07:21:23;;;;;;;;;;;16.90;48.20;;;;;;7394473;19;1593;-61
2024/01/16 07:23:48;;;;;;;;;;;16.90;48.20;;;;;;7393115;19;888;-61
2024/01/16 07:26:14;;;;;;;;;;;16.90;48.20;;;;;;7396692;19;1576;-61
2024/01/16 07:28:39;;;;;;;;;;;16.90;48.20;;;;;;7395479;19;2022;-62
2024/01/16 07:31:05;;;;;;;;;;;16.90;48.10;;;;;;7395492;19;2133;-61
2024/01/16 07:33:31;;;;;;;;;;;16.90;48.10;;;;;;7392729;19;1595;-61
2024/01/16 07:35:57;;;;;;;;;;;16.90;48.10;;;;;;7390602;19;2755;-62
2024/01/16 07:38:22;;;;;;;;;;;17.00;48.10;;;;;;7390990;19;2580;-62
2024/01/16 07:40:50;;;;;;;;;;;17.00;48.00;;;;;;7392673;19;2001;-63
2024/01/16 07:43:15;;;;;;;;;;;17.30;48.10;;;;;;7391698;19;2313;-62
2024/01/16 07:45:41;;;;;;;;;;;18.10;47.20;;;;;;7395552;19;1590;-62
2024/01/16 07:48:08;;;;;;;;;;;18.80;45.80;;;;;;7394275;19;1592;-62
2024/01/16 07:50:33;;;;;;;;;;;19.30;45.00;;;;;;7393063;19;2067;-62
2024/01/16 07:52:59;;;;;;;;;;;19.60;44.20;;;;;;7395074;19;1447;-62
2024/01/16 07:55:24;;;;;;;;;;;19.80;44.10;;;;;;7396397;19;2367;-63
2024/01/16 07:57:49;;;;;;;;;;;19.90;43.60;;;;;;7392258;19;1865;-62
2024/01/16 08:00:15;;;;;;;;;;;20.00;43.50;;;;;;7396437;19;1527;-63
2024/01/16 08:02:41;;;;;;;;;;;20.10;43.20;;;;;;7396670;19;1460;-62
2024/01/16 08:05:07;;;;;;;;;;;20.20;43.10;;;;;;7392152;19;3174;-62
2024/01/16 08:07:32;;;;;;;;;;;20.20;42.90;;;;;;7396934;19;1508;-62
2024/01/16 08:09:57;;;;;;;;;;;20.30;43.10;;;;;;7394205;19;1504;-62
2024/01/16 08:12:23;;;;;;;;;;;20.30;42.90;;;;;;7390682;19;2156;-62
2024/01/16 08:14:48;;;;;;;;;;;20.40;42.80;;;;;;7396648;19;1535;-62
2024/01/16 08:17:14;;;;;;;;;;;20.50;42.70;;;;;;7394268;19;1850;-61
2024/01/16 08:19:39;;;;;;;;;;;20.50;42.60;;;;;;7396180;19;1803;-62
2024/01/16 08:22:05;;;;;;;;;;;20.50;42.50;;;;;;7394134;19;1479;-62
2024/01/16 08:24:31;;;;;;;;;;;20.60;42.50;;;;;;7393405;19;1662;-62
2024/01/16 08:26:59;;;;;;;;;;;20.50;42.40;;;;;;7396425;19;1389;-62
2024/01/16 08:29:25;;;;;;;;;;;20.50;42.30;;;;;;7394632;19;1601;-62
2024/01/16 08:31:53;;;;;;;;;;;20.60;42.30;;;;;;7393888;19;1556;-62
2024/01/16 08:34:19;;;;;;;;;;;20.50;42.40;;;;;;7394080;19;1605;-62
2024/01/16 08:36:44;;;;;;;;;;;20.50;42.50;;;;;;7395369;19;1853;-62
2024/01/16 08:39:10;;;;;;;;;;;20.50;42.50;;;;;;7394609;19;1420;-63
2024/01/16 08:41:35;;;;;;;;;;;20.40;42.50;;;;;;7398019;19;1613;-62
2024/01/16 08:44:01;;;;;;;;;;;20.40;42.70;;;;;;7401358;19;1599;-64
2024/01/16 08:46:26;;;;;;;;;;;20.20;42.80;;;;;;7400061;19;1564;-62
2024/01/16 08:48:52;;;;;;;;;;;20.10;43.00;;;;;;7401335;19;1529;-62
2024/01/16 08:51:17;;;;;;;;;;;20.10;43.10;;;;;;7402390;19;1383;-62
2024/01/16 08:53:43;;;;;;;;;;;19.90;43.30;;;;;;7399511;19;1712;-62
2024/01/16 08:56:08;;;;;;;;;;;19.80;43.50;;;;;;7400651;19;1818;-62
2024/01/16 08:58:38;;;;;;;;;;;19.80;43.60;;;;;;7397655;19;1850;-62
2024/01/16 09:01:04;;;;;;;;;;;19.70;43.90;;;;;;7401558;19;1543;-62
2024/01/16 09:03:30;;;;;;;;;;;19.60;44.00;;;;;;7397755;19;2665;-62
2024/01/16 09:05:56;;;;;;;;;;;19.70;44.00;;;;;;7399451;19;2735;-62
2024/01/16 09:08:21;;;;;;;;;;;19.70;44.00;;;;;;7401488;19;1537;-62
2024/01/16 09:10:46;;;;;;;;;;;19.70;44.10;;;;;;7400242;19;1438;-61
2024/01/16 09:13:12;;;;;;;;;;;19.80;44.00;;;;;;7396009;19;1868;-62
2024/01/16 09:15:38;;;;;;;;;;;19.80;43.70;;;;;;7400660;19;1418;-61
2024/01/16 09:18:03;;;;;;;;;;;19.90;43.60;;;;;;7398093;19;1846;-62
2024/01/16 09:20:29;;;;;;;;;;;20.00;43.60;;;;;;7401199;19;1520;-62
2024/01/16 09:22:54;;;;;;;;;;;20.10;43.50;;;;;;7402405;19;1654;-61
2024/01/16 09:25:20;;;;;;;;;;;20.10;43.30;;;;;;7401022;19;1621;-62
2024/01/16 09:27:46;;;;;;;;;;;20.10;43.10;;;;;;7399466;19;1531;-62
2024/01/16 09:30:12;;;;;;;;;;;20.00;43.10;;;;;;7398879;19;1399;-61
2024/01/16 09:32:37;;;;;;;;;;;20.00;43.30;;;;;;7401891;19;1547;-62
2024/01/16 09:35:06;;;;;;;;;;;20.00;43.20;;;;;;7400375;19;1837;-62
2024/01/16 09:37:31;;;;;;;;;;;20.10;43.30;;;;;;7396368;19;1845;-63
2024/01/16 09:39:57;;;;;;;;;;;20.00;43.20;;;;;;7397530;19;1616;-62
2024/01/16 09:42:22;;;;;;;;;;;20.00;43.40;;;;;;7399865;19;1552;-62
2024/01/16 09:44:48;;;;;;;;;;;19.90;44.10;;;;;;7401680;19;1377;-62
2024/01/16 09:47:14;;;;;;;;;;;19.90;43.60;;;;;;7397220;19;1106;-63
2024/01/16 09:49:39;;;;;;;;;;;19.80;43.80;;;;;;7398478;19;1676;-62
2024/01/16 09:52:05;;;;;;;;;;;19.80;43.80;;;;;;7399997;19;773;-62
2024/01/16 09:54:30;;;;;;;;;;;19.80;43.90;;;;;;7400163;19;1604;-62
2024/01/16 09:56:57;;;;;;;;;;;19.80;43.80;;;;;;7400064;19;1845;-62
2024/01/16 09:59:23;;;;;;;;;;;19.80;43.90;;;;;;7396551;19;1542;-62
2024/01/16 10:01:49;;;;;;;;;;;19.80;43.80;;;;;;7398458;19;1670;-62
2024/01/16 10:04:15;;;;;;;;;;;19.90;43.60;;;;;;7395901;19;1798;-62
2024/01/16 10:06:41;;;;;;;;;;;20.00;43.50;;;;;;7397050;19;2490;-61
2024/01/16 10:09:06;;;;;;;;;;;20.00;43.40;;;;;;7397246;19;1939;-61
2024/01/16 10:11:32;;;;;;;;;;;20.00;43.30;;;;;;7394092;19;1892;-62
2024/01/16 10:13:58;;;;;;;;;;;20.10;43.30;;;;;;7396554;19;2201;-62
2024/01/16 10:16:26;;;;;;;;;;;20.10;43.10;;;;;;7397907;19;1673;-62
2024/01/16 10:18:52;;;;;;;;;;;20.10;43.20;;;;;;7396635;19;1847;-62
2024/01/16 10:21:29;;;;;;;;;;;20.10;43.10;;;;;;7397220;19;1512;-62
2024/01/16 10:23:54;;;;;;;;;;;20.10;43.10;;;;;;7397389;19;1529;-62
2024/01/16 10:26:19;;;;;;;;;;;20.10;43.20;;;;;;7399342;19;1590;-62
2024/01/16 10:28:45;;;;;;;;;;;20.10;43.20;;;;;;7397137;19;1623;-62
2024/01/16 10:31:11;;;;;;;;;;;20.00;43.30;;;;;;7396360;19;1632;-62
2024/01/16 10:33:40;;;;;;;;;;;20.00;43.40;;;;;;7395969;19;1946;-62
2024/01/16 10:36:11;;;;;;;;;;;20.00;43.50;;;;;;7398297;19;2006;-62
2024/01/16 10:38:40;;;;;;;;;;;20.00;43.60;;;;;;7397192;19;1935;-62
2024/01/16 10:41:06;;;;;;;;;;;19.90;43.50;;;;;;7396212;19;1918;-62
2024/01/16 10:43:31;;;;;;;;;;;19.80;43.40;;;;;;7395848;19;2144;-62
2024/01/16 10:46:06;;;;;;;;;;;19.80;43.80;;;;;;7398100;19;1084;-63
2024/01/16 10:48:31;;;;;;;;;;;19.80;43.80;;;;;;7395714;19;1649;-62
2024/01/16 10:50:57;;;;;;;;;;;19.90;43.80;;;;;;7396378;19;2198;-63
2024/01/16 10:53:22;;;;;;;;;;;19.90;43.80;;;;;;7395843;19;2857;-62
2024/01/16 10:55:51;;;;;;;;;;;19.90;43.50;;;;;;7396604;19;1903;-63
2024/01/16 10:58:17;;;;;;;;;;;20.00;43.60;;;;;;7394640;19;2174;-62
2024/01/16 11:00:42;;;;;;;;;;;20.00;43.40;;;;;;7397603;19;1898;-62
2024/01/16 11:03:09;;;;;;;;;;;20.10;43.40;;;;;;7394344;19;1790;-63
2024/01/16 11:05:35;;;;;;;;;;;20.10;43.30;;;;;;7395003;19;1607;-62
2024/01/16 11:08:01;;;;;;;;;;;20.10;43.10;;;;;;7388228;19;3012;-62
2024/01/16 11:10:26;;;;;;;;;;;20.20;43.10;;;;;;7394512;19;1986;-62
2024/01/16 11:12:52;;;;;;;;;;;20.10;43.10;;;;;;7395498;19;2278;-62
2024/01/16 11:15:17;;;;;;;;;;;20.20;43.20;;;;;;7394981;19;1882;-62
2024/01/16 11:17:43;;;;;;;;;;;20.20;43.20;;;;;;7393918;19;1849;-62
2024/01/16 11:20:13;;;;;;;;;;;20.20;43.20;;;;;;7394811;19;1887;-62
2024/01/16 11:22:39;;;;;;;;;;;20.10;43.20;;;;;;7397880;19;2418;-62
2024/01/16 11:25:09;;;;;;;;;;;20.10;43.40;;;;;;7395478;19;1756;-62
2024/01/16 11:27:35;;;;;;;;;;;20.00;43.30;;;;;;7394737;19;2104;-62
2024/01/16 11:30:00;;;;;;;;;;;19.90;43.50;;;;;;7397061;19;2144;-63
2024/01/16 11:32:32;;;;;;;;;;;19.90;43.50;;;;;;7396928;19;1648;-62
2024/01/16 11:34:58;;;;;;;;;;;19.80;43.40;;;;;;7395857;19;1931;-62
2024/01/16 11:37:28;;;;;;;;;;;19.80;43.50;;;;;;7394444;19;2220;-62
2024/01/16 11:40:12;;;;;;;;;;;19.90;43.60;;;;;;7396168;19;2053;-62
2024/01/16 11:42:42;;;;;;;;;;;19.90;43.50;;;;;;7395171;19;2334;-62
2024/01/16 11:45:08;;;;;;;;;;;20.00;43.50;;;;;;7394882;19;2204;-63
2024/01/16 11:47:34;;;;;;;;;;;20.10;43.30;;;;;;7393429;19;1976;-62
2024/01/16 11:50:09;;;;;;;;;;;20.10;43.20;;;;;;7394157;19;2399;-62
2024/01/16 11:52:42;;;;;;;;;;;20.20;43.10;;;;;;7391223;19;1492;-62
2024/01/16 11:55:26;;;;;;;;;;;20.20;42.90;;;;;;7394042;19;1429;-62
2024/01/16 11:58:12;;;;;;;;;;;20.20;42.80;;;;;;7395871;19;1850;-62
2024/01/16 12:00:39;;;;;;;;;;;20.30;42.70;;;;;;7397135;19;1512;-62
2024/01/16 12:03:04;;;;;;;;;;;20.30;42.70;;;;;;7392634;19;1176;-62
2024/01/16 12:05:30;;;;;;;;;;;20.30;42.60;;;;;;7392681;19;2649;-62
2024/01/16 12:07:55;;;;;;;;;;;20.20;42.40;;;;;;7395956;19;2837;-62
2024/01/16 12:10:21;;;;;;;;;;;20.20;42.50;;;;;;7393809;19;1247;-62
2024/01/16 12:12:47;;;;;;;;;;;20.20;42.70;;;;;;7391045;19;1932;-62
2024/01/16 12:15:15;;;;;;;;;;;20.20;42.60;;;;;;7400594;19;2150;-62
2024/01/16 12:17:50;;;;;;;;;;;20.10;42.80;;;;;;7402547;19;2051;-62
2024/01/16 12:20:17;;;;;;;;;;;20.10;42.80;;;;;;7393611;19;2697;-63
2024/01/16 12:22:43;;;;;;;;;;;20.00;43.00;;;;;;7403476;19;2505;-62
2024/01/16 12:25:08;;;;;;;;;;;20.00;43.00;;;;;;7402792;19;1975;-62
2024/01/16 12:27:34;;;;;;;;;;;20.00;43.80;;;;;;7401528;19;2867;-63
2024/01/16 12:30:09;;;;;;;;;;;20.10;43.20;;;;;;7401374;19;2609;-63
2024/01/16 12:32:35;;;;;;;;;;;20.10;43.10;;;;;;7403752;19;1569;-62
2024/01/16 12:35:00;;;;;;;;;;;20.10;43.20;;;;;;7399318;19;1573;-63
2024/01/16 12:37:26;;;;;;;;;;;20.10;43.10;;;;;;7398493;19;2315;-62
2024/01/16 12:39:52;;;;;;;;;;;20.10;43.10;;;;;;7401784;19;1574;-63
2024/01/16 12:42:17;;;;;;;;;;;20.10;43.10;;;;;;7401452;19;1530;-62
2024/01/16 12:44:42;;;;;;;;;;;20.10;43.10;;;;;;7400114;19;1534;-63
2024/01/16 12:47:08;;;;;;;;;;;20.20;43.20;;;;;;7399872;19;1521;-63
2024/01/16 12:49:39;;;;;;;;;;;20.10;43.10;;;;;;7399964;19;1590;-63
2024/01/16 12:52:14;;;;;;;;;;;20.10;43.20;;;;;;7400660;19;1499;-62
2024/01/16 12:54:40;;;;;;;;;;;20.10;43.20;;;;;;7399341;19;1585;-62
2024/01/16 12:57:06;;;;;;;;;;;20.20;43.20;;;;;;7398690;19;1852;-63
2024/01/16 12:59:31;;;;;;;;;;;20.10;43.20;;;;;;7400853;19;1681;-63
2024/01/16 13:01:57;;;;;;;;;;;20.10;43.20;;;;;;7400103;19;3780;-63
2024/01/16 13:04:22;;;;;;;;;;;20.10;43.10;;;;;;7401565;19;1578;-63
2024/01/16 13:06:48;;;;;;;;;;;20.20;43.30;;;;;;7398852;19;1612;-62
2024/01/16 13:09:18;;;;;;;;;;;20.20;43.10;;;;;;7401506;19;3550;-62
2024/01/16 13:11:54;;;;;;;;;;;20.10;43.10;;;;;;7396534;19;1832;-63
2024/01/16 13:14:23;;;;;;;;;;;20.10;43.20;;;;;;7400514;19;2078;-63
2024/01/16 13:16:49;;;;;;;;;;;20.10;43.20;;;;;;7396444;19;2771;-62
2024/01/16 13:19:18;;;;;;;;;;;20.10;43.40;;;;;;7395641;19;1842;-62
2024/01/16 13:21:43;;;;;;;;;;;20.10;43.40;;;;;;7399944;19;1822;-63
2024/01/16 13:24:09;;;;;;;;;;;20.00;43.40;;;;;;7400145;19;1464;-63
2024/01/16 13:26:34;;;;;;;;;;;20.10;43.50;;;;;;7400126;19;1583;-62
2024/01/16 13:29:00;;;;;;;;;;;20.00;43.30;;;;;;7398960;19;1552;-62
2024/01/16 13:31:25;;;;;;;;;;;20.00;43.40;;;;;;7401978;19;1746;-62
2024/01/16 13:33:51;;;;;;;;;;;20.00;43.50;;;;;;7399806;19;1517;-61
2024/01/16 13:36:16;;;;;;;;;;;20.00;44.10;;;;;;7400741;19;1477;-62
2024/01/16 13:38:42;;;;;;;;;;;20.00;43.50;;;;;;7397775;19;1858;-62
2024/01/16 13:41:07;;;;;;;;;;;20.10;43.40;;;;;;7397993;19;1560;-62
2024/01/16 13:43:33;;;;;;;;;;;20.10;43.40;;;;;;7399073;19;1645;-62
2024/01/16 13:45:58;;;;;;;;;;;20.20;43.50;;;;;;7399096;19;1324;-62
2024/01/16 13:48:24;;;;;;;;;;;20.10;43.30;;;;;;7400502;19;1523;-62
2024/01/16 13:50:50;;;;;;;;;;;20.20;43.30;;;;;;7401365;19;1738;-62
2024/01/16 13:53:15;;;;;;;;;;;20.20;43.20;;;;;;7400113;19;1786;-61
2024/01/16 13:55:41;;;;;;;;;;;20.20;43.00;;;;;;7398231;19;1594;-62
2024/01/16 13:58:07;;;;;;;;;;;20.20;43.00;;;;;;7396507;19;1825;-62
2024/01/16 14:00:32;;;;;;;;;;;20.20;43.10;;;;;;7399284;19;1750;-61
2024/01/16 14:02:57;;;;;;;;;;;20.30;43.10;;;;;;7400826;19;1831;-61
2024/01/16 14:05:23;;;;;;;;;;;20.20;43.00;;;;;;7399481;19;1573;-62
2024/01/16 14:07:51;;;;;;;;;;;20.20;42.90;;;;;;7397760;19;1448;-62
2024/01/16 14:10:18;;;;;;;;;;;20.20;43.10;;;;;;7398288;19;2517;-62
2024/01/16 14:12:44;;;;;;;;;;;20.20;43.20;;;;;;7398081;19;1498;-62
2024/01/16 14:15:16;;;;;;;;;;;20.10;43.20;;;;;;7397149;19;1529;-62
2024/01/16 14:17:48;;;;;;;;;;;20.00;43.30;;;;;;7396982;19;1845;-62
2024/01/16 14:20:14;;;;;;;;;;;20.00;43.40;;;;;;7395196;19;1766;-61
2024/01/16 14:22:43;;;;;;;;;;;20.00;43.40;;;;;;7397430;19;2033;-63
2024/01/16 14:25:12;;;;;;;;;;;20.00;43.40;;;;;;7398448;19;2249;-62